Time;durP1;ratioP1;P1;durP2;ratioP2;P2;SDS_P1;SDS_P2;PMS_P1;PMS_P2;Temp;Humidity;BMP_temperature;BMP_pressure;BME280_temperature;BME280_humidity;BME280_pressure;Samples;Min_cycle;Max_cycle;Signal;HPM_P1;HPM_P2
2022/01/29 00:01:52;;;;;;;59.47;36.65;;;;;;;4.75;100.00;102787.84;5096250;28;20034;-76
2022/01/29 00:04:18;;;;;;;60.53;37.50;;;;;;;4.78;100.00;102801.13;5096210;28;20020;-76
2022/01/29 00:06:44;;;;;;;59.22;34.92;;;;;;;4.83;100.00;102776.06;5087950;28;20501;-75
2022/01/29 00:09:13;;;;;;;58.88;36.85;;;;;;;4.81;100.00;102784.69;5091661;28;20516;-74
2022/01/29 00:11:40;;;;;;;62.85;37.42;;;;;;;4.84;100.00;102767.41;5090351;28;20059;-76
2022/01/29 00:14:08;;;;;;;61.03;37.70;;;;;;;4.82;100.00;102758.56;5095842;28;20063;-75
2022/01/29 00:16:34;;;;;;;59.90;36.28;;;;;;;4.79;100.00;102758.38;5094106;28;20051;-74
2022/01/29 00:19:00;;;;;;;60.40;35.72;;;;;;;4.89;100.00;102759.81;5096135;28;20421;-74
2022/01/29 00:21:25;;;;;;;64.25;39.03;;;;;;;4.83;100.00;102759.44;5095848;28;20031;-74
2022/01/29 00:23:50;;;;;;;61.40;37.13;;;;;;;4.89;100.00;102747.63;5095773;28;20043;-73
2022/01/29 00:26:20;;;;;;;63.55;38.35;;;;;;;4.82;100.00;102753.31;5095921;28;20031;-75
2022/01/29 00:28:45;;;;;;;64.18;37.95;;;;;;;4.83;100.00;102748.97;5095555;28;20020;-73
2022/01/29 00:31:10;;;;;;;62.67;37.60;;;;;;;4.83;100.00;102749.88;5095432;28;20145;-73
2022/01/29 00:33:38;;;;;;;62.67;38.05;;;;;;;4.84;100.00;102742.94;5128928;27;20020;-75
2022/01/29 00:36:04;;;;;;;64.15;40.15;;;;;;;4.81;100.00;102733.16;5094411;28;20546;-74
2022/01/29 00:38:29;;;;;;;64.40;37.13;;;;;;;4.89;100.00;102728.34;5095597;28;20035;-75
2022/01/29 00:40:54;;;;;;;59.45;35.72;;;;;;;4.89;100.00;102734.53;5095656;28;20402;-75
2022/01/29 00:43:20;;;;;;;61.50;38.33;;;;;;;4.85;100.00;102742.13;5095257;28;20073;-73
2022/01/29 00:45:45;;;;;;;62.53;37.40;;;;;;;4.88;100.00;102740.56;5095626;28;20028;-77
2022/01/29 00:48:10;;;;;;;60.80;35.13;;;;;;;4.94;100.00;102745.25;5093667;28;20098;-71
2022/01/29 00:50:36;;;;;;;65.70;39.28;;;;;;;4.90;100.00;102740.66;5095457;28;20027;-77
2022/01/29 00:53:01;;;;;;;65.45;38.72;;;;;;;4.92;100.00;102731.16;5095209;28;20024;-76
2022/01/29 00:55:27;;;;;;;65.95;40.15;;;;;;;4.88;100.00;102721.31;5095270;28;20024;-74
2022/01/29 00:57:52;;;;;;;63.63;38.70;;;;;;;4.85;100.00;102722.06;5095075;28;20026;-76
2022/01/29 01:00:17;;;;;;;61.13;35.67;;;;;;;4.84;100.00;102722.84;5095265;28;20028;-75
2022/01/29 01:02:43;;;;;;;67.30;38.45;;;;;;;4.83;100.00;102714.91;5094923;28;20024;-74
2022/01/29 01:05:09;;;;;;;64.30;38.92;;;;;;;4.86;100.00;102713.38;5095249;28;20454;-76
2022/01/29 01:07:34;;;;;;;64.32;39.63;;;;;;;4.85;100.00;102708.94;5095139;28;20456;-77
2022/01/29 01:10:00;;;;;;;61.30;37.67;;;;;;;4.91;100.00;102707.47;5094836;28;20020;-75
2022/01/29 01:12:25;;;;;;;65.63;37.80;;;;;;;4.87;100.00;102694.19;5094732;28;20020;-77
2022/01/29 01:14:51;;;;;;;65.25;40.05;;;;;;;4.87;100.00;102688.97;5094851;28;20032;-77
2022/01/29 01:17:18;;;;;;;64.40;39.65;;;;;;;4.95;100.00;102684.19;5094782;28;20036;-76
2022/01/29 01:19:44;;;;;;;63.05;39.83;;;;;;;4.89;100.00;102683.81;5091977;28;20031;-76
2022/01/29 01:22:09;;;;;;;64.80;40.03;;;;;;;4.91;100.00;102670.78;5094890;28;20028;-74
2022/01/29 01:24:34;;;;;;;63.00;39.53;;;;;;;4.87;100.00;102668.00;5094835;28;20069;-72
2022/01/29 01:27:00;;;;;;;67.38;39.90;;;;;;;4.86;100.00;102655.72;5094594;28;20036;-71
2022/01/29 01:29:25;;;;;;;62.22;38.85;;;;;;;4.86;100.00;102647.88;5094536;28;20032;-71
2022/01/29 01:31:51;;;;;;;63.28;39.72;;;;;;;4.80;100.00;102647.50;5094286;28;20016;-72
2022/01/29 01:34:19;;;;;;;59.13;37.80;;;;;;;4.91;100.00;102642.88;5094528;28;20068;-70
2022/01/29 01:36:51;;;;;;;61.45;37.75;;;;;;;4.87;100.00;102633.91;5094419;28;20032;-71
2022/01/29 01:39:20;;;;;;;64.00;40.72;;;;;;;4.85;100.00;102635.56;5094223;28;21028;-70
2022/01/29 01:42:19;;;;;;;65.15;39.92;;;;;;;4.80;100.00;102626.53;5094245;28;20423;-70
2022/01/29 01:44:45;;;;;;;62.58;36.95;;;;;;;4.81;100.00;102644.06;5090468;28;20051;-70
2022/01/29 01:47:11;;;;;;;69.30;40.72;;;;;;;4.79;100.00;102637.84;5094363;28;20024;-70
2022/01/29 01:49:38;;;;;;;69.10;40.53;;;;;;;4.70;100.00;102637.31;5094139;28;20032;-70
2022/01/29 01:52:06;;;;;;;70.28;41.17;;;;;;;4.61;100.00;102636.78;5093905;28;20499;-70
2022/01/29 01:54:32;;;;;;;66.05;38.25;;;;;;;4.72;100.00;102635.69;5094111;28;20055;-72
2022/01/29 01:56:58;;;;;;;66.25;41.67;;;;;;;4.58;100.00;102616.56;5093998;28;20445;-70
2022/01/29 01:59:24;;;;;;;73.07;42.15;;;;;;;4.54;100.00;102619.81;5092450;28;20043;-71
2022/01/29 02:01:49;;;;;;;72.15;43.15;;;;;;;4.56;100.00;102633.00;5094031;28;20028;-74
2022/01/29 02:04:14;;;;;;;72.53;42.15;;;;;;;4.53;100.00;102608.44;5093907;28;20020;-77
2022/01/29 02:06:40;;;;;;;71.80;40.67;;;;;;;4.54;100.00;102604.09;5093708;28;20439;-74
2022/01/29 02:09:05;;;;;;;71.60;41.33;;;;;;;4.53;100.00;102595.34;5093716;28;20422;-75
2022/01/29 02:11:31;;;;;;;69.25;40.40;;;;;;;4.49;100.00;102595.97;5093661;28;20056;-74
2022/01/29 02:13:58;;;;;;;70.35;40.60;;;;;;;4.43;100.00;102585.16;5093774;28;20024;-74
2022/01/29 02:16:26;;;;;;;69.85;40.47;;;;;;;4.45;100.00;102580.91;5093679;28;20482;-75
2022/01/29 02:18:52;;;;;;;70.78;41.38;;;;;;;4.49;100.00;102590.75;5093564;28;20065;-72
2022/01/29 02:21:19;;;;;;;66.13;40.90;;;;;;;4.46;100.00;102585.31;5093507;28;20032;-74
2022/01/29 02:23:44;;;;;;;69.13;42.00;;;;;;;4.46;100.00;102584.44;5093697;28;20024;-75
2022/01/29 02:26:09;;;;;;;65.00;39.30;;;;;;;4.45;100.00;102583.50;5085493;28;20438;-73
2022/01/29 02:28:35;;;;;;;65.18;38.50;;;;;;;4.46;100.00;102580.09;5091233;28;20035;-73
2022/01/29 02:31:01;;;;;;;67.38;39.15;;;;;;;4.47;100.00;102570.50;5093682;28;20051;-73
2022/01/29 02:33:27;;;;;;;72.93;43.15;;;;;;;4.47;100.00;102576.66;5093073;28;20024;-75
2022/01/29 02:35:55;;;;;;;67.32;39.53;;;;;;;4.51;100.00;102580.34;5093126;28;20032;-76
2022/01/29 02:38:23;;;;;;;68.78;41.83;;;;;;;4.51;100.00;102573.41;5093324;28;20024;-73
2022/01/29 02:40:51;;;;;;;71.20;40.28;;;;;;;4.50;100.00;102561.13;5085330;28;20035;-73
2022/01/29 02:43:18;;;;;;;72.80;41.45;;;;;;;4.45;100.00;102567.81;5086875;28;20035;-71
2022/01/29 02:45:44;;;;;;;68.10;41.28;;;;;;;4.49;100.00;102563.66;5093187;28;20028;-73
2022/01/29 02:48:10;;;;;;;69.50;39.88;;;;;;;4.51;100.00;102568.16;5093315;28;20105;-75
2022/01/29 02:50:37;;;;;;;70.60;41.28;;;;;;;4.51;100.00;102562.94;5091644;28;20028;-75
2022/01/29 02:53:02;;;;;;;69.25;40.50;;;;;;;4.59;100.00;102559.81;5093389;28;20505;-72
2022/01/29 02:55:29;;;;;;;71.20;40.17;;;;;;;4.52;100.00;102567.34;5092757;28;20028;-72
2022/01/29 02:57:54;;;;;;;71.28;41.65;;;;;;;4.54;100.00;102559.56;5092161;28;20024;-71
2022/01/29 03:00:20;;;;;;;71.63;38.97;;;;;;;4.57;100.00;102550.97;5093274;28;20027;-70
2022/01/29 03:02:45;;;;;;;75.15;41.83;;;;;;;4.53;100.00;102552.53;5091163;28;20036;-70
2022/01/29 03:05:11;;;;;;;75.15;42.45;;;;;;;4.58;100.00;102542.31;5092874;28;20026;-70
2022/01/29 03:07:38;;;;;;;72.93;40.08;;;;;;;4.55;100.00;102561.38;5092780;28;20386;-70
2022/01/29 03:10:04;;;;;;;78.70;41.08;;;;;;;4.55;100.00;102550.91;5092836;28;20020;-71
2022/01/29 03:12:29;;;;;;;72.68;38.63;;;;;;;4.60;100.00;102553.78;5092711;28;20020;-70
2022/01/29 03:14:55;;;;;;;76.68;41.47;;;;;;;4.58;100.00;102542.31;5092636;28;20035;-71
2022/01/29 03:17:20;;;;;;;80.18;42.45;;;;;;;4.56;100.00;102538.69;5092693;28;20459;-71
2022/01/29 03:19:45;;;;;;;77.68;40.85;;;;;;;4.58;100.00;102537.06;5092869;28;20051;-70
2022/01/29 03:22:11;;;;;;;80.57;41.03;;;;;;;4.56;100.00;102530.84;5092774;28;20364;-71
2022/01/29 03:24:36;;;;;;;79.15;41.80;;;;;;;4.56;100.00;102517.72;5091194;28;20060;-70
2022/01/29 03:27:02;;;;;;;79.82;42.33;;;;;;;4.58;100.00;102529.22;5093009;28;20235;-73
2022/01/29 03:29:28;;;;;;;73.22;40.63;;;;;;;4.63;100.00;102522.50;5092426;28;20493;-72
2022/01/29 03:31:53;;;;;;;82.45;43.20;;;;;;;4.58;100.00;102510.88;5092709;28;20024;-71
2022/01/29 03:34:19;;;;;;;83.53;42.90;;;;;;;4.58;100.00;102516.13;5092929;28;20016;-71
2022/01/29 03:36:45;;;;;;;81.32;41.50;;;;;;;4.64;100.00;102517.34;5092331;28;20028;-73
2022/01/29 03:39:10;;;;;;;82.68;42.15;;;;;;;4.64;100.00;102516.44;5092536;28;20056;-71
2022/01/29 03:41:36;;;;;;;85.57;44.47;;;;;;;4.63;100.00;102510.31;5092876;28;20090;-71
2022/01/29 03:44:05;;;;;;;81.55;41.58;;;;;;;4.65;100.00;102502.56;5090053;28;20024;-70
2022/01/29 03:46:32;;;;;;;80.10;42.33;;;;;;;4.67;100.00;102503.53;5089136;28;20050;-71
2022/01/29 03:48:58;;;;;;;75.22;38.65;;;;;;;4.66;100.00;102500.00;5092439;28;20104;-71
2022/01/29 03:51:23;;;;;;;81.20;42.92;;;;;;;4.70;100.00;102501.06;5092533;28;20093;-71
2022/01/29 03:53:48;;;;;;;77.50;41.13;;;;;;;4.70;100.00;102496.75;5092305;28;20463;-71
2022/01/29 03:56:14;;;;;;;82.78;43.47;;;;;;;4.65;100.00;102492.06;5092290;28;20032;-73
2022/01/29 03:58:39;;;;;;;81.72;42.50;;;;;;;4.68;100.00;102487.00;5092316;28;20023;-73
2022/01/29 04:01:05;;;;;;;77.93;42.03;;;;;;;4.71;100.00;102493.28;5092390;28;20020;-75
2022/01/29 04:03:32;;;;;;;79.25;39.42;;;;;;;4.70;100.00;102490.59;5092664;28;20417;-75
2022/01/29 04:05:57;;;;;;;74.05;39.53;;;;;;;4.74;100.00;102482.06;5092153;28;20058;-73
2022/01/29 04:08:24;;;;;;;70.72;36.72;;;;;;;4.75;100.00;102498.69;5092154;28;20495;-72
2022/01/29 04:10:51;;;;;;;72.97;37.83;;;;;;;4.72;100.00;102492.47;5096278;28;20119;-75
2022/01/29 04:13:20;;;;;;;68.20;37.63;;;;;;;4.80;100.00;102486.75;5095915;28;20024;-73
2022/01/29 04:15:46;;;;;;;65.18;35.80;;;;;;;4.79;100.00;102493.72;5095942;28;20119;-75
2022/01/29 04:18:11;;;;;;;73.18;39.38;;;;;;;4.77;100.00;102482.25;5096337;28;20499;-73
2022/01/29 04:20:36;;;;;;;66.78;37.38;;;;;;;4.80;100.00;102494.63;5095844;28;20063;-73
2022/01/29 04:23:04;;;;;;;65.88;34.97;;;;;;;4.81;100.00;102478.09;5095625;28;20032;-70
2022/01/29 04:25:30;;;;;;;70.93;37.33;;;;;;;4.83;100.00;102477.31;5095882;28;20481;-70
2022/01/29 04:27:55;;;;;;;64.95;37.33;;;;;;;4.86;100.00;102472.28;5095656;28;20099;-71
2022/01/29 04:30:31;;;;;;;62.33;35.58;;;;;;;4.91;100.00;102469.91;5095830;28;20030;-72
2022/01/29 04:33:14;;;;;;;64.95;36.88;;;;;;;4.96;100.00;102467.50;5092826;28;20368;-69
2022/01/29 04:35:39;;;;;;;61.08;35.05;;;;;;;5.02;100.00;102468.75;5096007;28;20024;-76
2022/01/29 04:38:04;;;;;;;65.40;36.25;;;;;;;5.01;100.00;102468.63;5095506;28;20024;-72
2022/01/29 04:40:30;;;;;;;70.10;37.22;;;;;;;5.01;100.00;102466.94;5095501;28;20072;-73
2022/01/29 04:42:55;;;;;;;65.13;35.75;;;;;;;5.03;100.00;102456.53;5095514;28;20445;-73
2022/01/29 04:45:20;;;;;;;63.28;35.53;;;;;;;5.07;100.00;102461.13;5095356;28;20129;-72
2022/01/29 04:47:46;;;;;;;65.47;35.13;;;;;;;5.09;100.00;102454.22;5095495;28;20471;-74
2022/01/29 04:50:11;;;;;;;66.75;37.10;;;;;;;5.14;100.00;102455.38;5095227;28;20532;-73
2022/01/29 04:52:36;;;;;;;64.28;34.90;;;;;;;5.15;100.00;102449.28;5095077;28;20098;-73
2022/01/29 04:55:02;;;;;;;67.55;37.30;;;;;;;5.18;100.00;102454.69;5095271;28;20064;-75
2022/01/29 04:57:28;;;;;;;67.43;36.80;;;;;;;5.22;100.00;102442.66;5095394;28;20028;-74
2022/01/29 04:59:53;;;;;;;68.05;37.40;;;;;;;5.17;100.00;102439.81;5094890;28;20382;-74
2022/01/29 05:02:18;;;;;;;67.00;35.13;;;;;;;5.23;100.00;102447.09;5095448;28;20095;-73
2022/01/29 05:04:43;;;;;;;65.88;34.53;;;;;;;5.24;100.00;102431.44;5094934;28;20020;-74
2022/01/29 05:07:09;;;;;;;66.63;35.60;;;;;;;5.23;100.00;102419.13;5095226;28;20114;-72
2022/01/29 05:09:34;;;;;;;72.00;38.53;;;;;;;5.30;100.00;102433.47;5094888;28;20116;-76
2022/01/29 05:12:01;;;;;;;66.75;36.72;;;;;;;5.33;100.00;102435.34;5095061;28;20017;-73
2022/01/29 05:14:40;;;;;;;70.45;36.65;;;;;;;5.29;100.00;102430.78;5094684;28;20031;-73
2022/01/29 05:27:51;;;;;;;70.15;37.08;;;;;;;5.43;100.00;102403.50;5087235;28;20119;-75
2022/01/29 05:30:17;;;;;;;67.75;36.63;;;;;;;5.45;100.00;102404.50;5090092;28;20534;-76
2022/01/29 05:32:42;;;;;;;71.40;39.10;;;;;;;5.44;100.00;102405.31;5089189;28;20032;-70
2022/01/29 05:35:08;;;;;;;72.40;38.60;;;;;;;5.47;100.00;102405.47;5094430;28;20024;-75
2022/01/29 05:37:33;;;;;;;67.93;37.22;;;;;;;5.48;100.00;102411.63;5094204;28;20030;-76
2022/01/29 05:39:58;;;;;;;70.97;38.10;;;;;;;5.51;100.00;102417.91;5094659;28;20386;-76
2022/01/29 05:42:24;;;;;;;75.72;40.70;;;;;;;5.54;100.00;102420.69;5094246;28;20074;-71
2022/01/29 05:44:49;;;;;;;75.15;39.85;;;;;;;5.51;100.00;102417.91;5094419;28;20051;-75
2022/01/29 05:47:14;;;;;;;71.30;38.97;;;;;;;5.52;100.00;102418.81;5094342;28;20031;-76
2022/01/29 05:49:40;;;;;;;74.25;38.85;;;;;;;5.56;100.00;102410.28;5094095;28;20024;-75
2022/01/29 05:52:05;;;;;;;74.30;40.30;;;;;;;5.57;100.00;102401.59;5093939;28;20020;-76
2022/01/29 05:54:31;;;;;;;77.38;40.38;;;;;;;5.57;100.00;102402.47;5094340;28;20366;-72
2022/01/29 05:56:57;;;;;;;81.30;40.35;;;;;;;5.59;100.00;102406.09;5094130;28;20032;-75
2022/01/29 05:59:22;;;;;;;73.50;39.20;;;;;;;5.64;100.00;102400.19;5094131;28;20028;-73
2022/01/29 06:01:47;;;;;;;78.65;41.35;;;;;;;5.62;100.00;102399.19;5094069;28;20082;-76
2022/01/29 06:04:13;;;;;;;75.90;39.50;;;;;;;5.65;100.00;102395.00;5093939;28;20031;-74
2022/01/29 06:06:38;;;;;;;77.07;40.55;;;;;;;5.68;100.00;102394.22;5093746;28;20047;-75
2022/01/29 06:09:04;;;;;;;79.75;42.33;;;;;;;5.67;100.00;102395.97;5093546;28;20127;-76
2022/01/29 06:11:31;;;;;;;69.63;37.97;;;;;;;5.74;100.00;102397.19;5093828;28;20036;-75
2022/01/29 06:13:57;;;;;;;70.97;39.72;;;;;;;5.75;100.00;102385.84;5093590;28;20032;-73
2022/01/29 06:16:22;;;;;;;75.32;40.60;;;;;;;5.74;100.00;102391.94;5093673;28;20509;-75
2022/01/29 06:18:48;;;;;;;69.10;38.53;;;;;;;5.73;100.00;102388.38;5093479;28;20102;-74
2022/01/29 06:21:14;;;;;;;73.00;40.08;;;;;;;5.79;100.00;102387.78;5093664;28;20020;-76
2022/01/29 06:23:40;;;;;;;68.97;38.30;;;;;;;5.84;100.00;102390.63;5093440;28;20020;-76
2022/01/29 06:26:09;;;;;;;70.70;38.75;;;;;;;5.86;100.00;102387.25;5093316;28;20043;-77
2022/01/29 06:28:35;;;;;;;67.15;36.15;;;;;;;5.86;100.00;102387.25;5093562;28;20077;-70
2022/01/29 06:31:01;;;;;;;65.65;37.90;;;;;;;5.87;100.00;102381.19;5093217;28;20028;-75
2022/01/29 06:33:26;;;;;;;77.75;43.28;;;;;;;5.86;100.00;102384.63;5092759;28;20051;-72
2022/01/29 06:35:52;;;;;;;71.93;40.30;;;;;;;5.92;100.00;102389.28;5093362;28;20028;-73
2022/01/29 06:38:17;;;;;;;69.60;38.75;;;;;;;5.91;100.00;102388.41;5093238;28;20024;-75
2022/01/29 06:40:43;;;;;;;72.82;40.17;;;;;;;5.96;100.00;102382.47;5091370;28;20036;-73
2022/01/29 06:43:09;;;;;;;70.63;40.53;;;;;;;5.97;100.00;102376.38;5093505;28;20414;-71
2022/01/29 06:45:36;;;;;;;70.60;40.30;;;;;;;5.97;100.00;102385.19;5093124;28;20028;-74
2022/01/29 06:48:02;;;;;;;68.80;39.92;;;;;;;6.01;100.00;102373.09;5093169;28;20024;-76
2022/01/29 06:50:28;;;;;;;72.20;41.83;;;;;;;6.02;100.00;102370.56;5093541;28;20081;-70
2022/01/29 06:52:54;;;;;;;70.10;40.15;;;;;;;6.06;100.00;102367.25;5092897;28;20028;-70
2022/01/29 06:55:20;;;;;;;68.45;40.20;;;;;;;6.07;100.00;102366.44;5092797;28;20096;-69
2022/01/29 06:57:46;;;;;;;69.30;40.00;;;;;;;6.11;100.00;102365.72;5093114;28;20021;-69
2022/01/29 07:00:12;;;;;;;63.20;37.22;;;;;;;6.13;100.00;102351.78;5093179;28;20370;-71
2022/01/29 07:02:37;;;;;;;65.43;39.15;;;;;;;6.14;100.00;102343.97;5092731;28;20028;-72
2022/01/29 07:05:05;;;;;;;64.15;38.38;;;;;;;6.20;100.00;102349.50;5093108;28;20036;-71
2022/01/29 07:07:30;;;;;;;61.53;37.10;;;;;;;6.23;100.00;102347.03;5092663;28;20027;-72
2022/01/29 07:09:56;;;;;;;62.63;38.72;;;;;;;6.23;100.00;102344.41;5092452;28;20482;-71
2022/01/29 07:12:22;;;;;;;62.95;38.60;;;;;;;6.25;100.00;102347.09;5092866;28;20027;-72
2022/01/29 07:14:49;;;;;;;57.47;36.17;;;;;;;6.28;100.00;102345.50;5092949;28;20026;-72
2022/01/29 07:17:17;;;;;;;57.33;35.08;;;;;;;6.30;100.00;102344.69;5088773;28;20031;-71
2022/01/29 07:19:44;;;;;;;63.40;37.28;;;;;;;6.26;100.00;102339.28;5092773;28;20085;-72
2022/01/29 07:22:09;;;;;;;64.00;38.40;;;;;;;6.22;100.00;102345.22;5092517;28;20032;-71
2022/01/29 07:24:35;;;;;;;60.67;36.65;;;;;;;6.23;100.00;102339.16;5092495;28;20028;-72
2022/01/29 07:27:02;;;;;;;64.03;38.45;;;;;;;6.24;100.00;102335.69;5092695;28;20059;-72
2022/01/29 07:29:28;;;;;;;68.40;40.58;;;;;;;6.21;100.00;102335.53;5092408;28;20077;-71
2022/01/29 07:31:54;;;;;;;68.85;38.95;;;;;;;6.20;100.00;102333.75;5092553;28;20016;-71
2022/01/29 07:34:19;;;;;;;67.65;39.35;;;;;;;6.23;100.00;102336.53;5092968;28;20093;-72
2022/01/29 07:36:44;;;;;;;69.05;37.95;;;;;;;6.25;100.00;102340.13;5092433;28;20020;-71
2022/01/29 07:39:10;;;;;;;68.45;39.03;;;;;;;6.28;100.00;102342.88;5092698;28;20020;-71
2022/01/29 07:41:35;;;;;;;73.03;40.58;;;;;;;6.31;100.00;102333.34;5092626;28;20027;-71
2022/01/29 07:44:01;;;;;;;66.63;37.33;;;;;;;6.31;100.00;102328.09;5093411;28;20027;-70
2022/01/29 07:46:26;;;;;;;69.35;40.00;;;;;;;6.33;100.00;102329.06;5096593;28;20092;-71
2022/01/29 07:48:52;;;;;;;67.15;39.60;;;;;;;6.35;100.00;102327.38;5096409;28;20034;-71
2022/01/29 07:51:17;;;;;;;73.15;40.15;;;;;;;6.37;100.00;102331.00;5096475;28;20024;-71
2022/01/29 07:53:42;;;;;;;65.38;37.67;;;;;;;6.42;100.00;102325.13;5096422;28;20019;-71
2022/01/29 07:56:08;;;;;;;66.32;39.65;;;;;;;6.43;100.00;102328.66;5096069;28;20024;-71
2022/01/29 07:58:33;;;;;;;63.03;37.50;;;;;;;6.47;100.00;102325.34;5096140;28;20047;-71
2022/01/29 08:00:59;;;;;;;64.30;37.15;;;;;;;6.50;100.00;102327.22;5096408;28;20032;-70
2022/01/29 08:03:24;;;;;;;62.50;37.40;;;;;;;6.49;100.00;102321.03;5096089;28;20035;-71
2022/01/29 08:05:49;;;;;;;66.70;38.30;;;;;;;6.51;100.00;102313.22;5095995;28;20057;-71
2022/01/29 08:08:15;;;;;;;67.47;38.85;;;;;;;6.57;100.00;102313.50;5096110;28;20115;-72
2022/01/29 08:10:40;;;;;;;64.82;37.63;;;;;;;6.59;100.00;102315.34;5096073;28;20052;-71
2022/01/29 08:13:05;;;;;;;65.07;39.05;;;;;;;6.63;100.00;102312.03;5095989;28;20048;-72
2022/01/29 08:15:31;;;;;;;60.88;37.47;;;;;;;6.71;100.00;102306.22;5095855;28;20028;-71
2022/01/29 08:17:56;;;;;;;57.92;37.03;;;;;;;6.77;100.00;102307.41;5095870;28;20107;-72
2022/01/29 08:20:21;;;;;;;57.03;34.63;;;;;;;6.78;100.00;102290.78;5094794;28;20075;-71
2022/01/29 08:22:47;;;;;;;54.95;35.17;;;;;;;6.80;100.00;102301.34;5095860;28;20025;-70
2022/01/29 08:25:13;;;;;;;55.33;33.38;;;;;;;6.81;100.00;102295.25;5095728;28;20431;-73
2022/01/29 08:27:39;;;;;;;55.83;35.55;;;;;;;6.88;100.00;102278.91;5095876;28;20096;-73
2022/01/29 08:30:05;;;;;;;54.60;35.50;;;;;;;6.95;100.00;102285.34;5095638;28;20051;-71
2022/01/29 08:32:30;;;;;;;53.78;34.30;;;;;;;7.01;100.00;102293.50;5095472;28;20028;-71
2022/01/29 08:34:56;;;;;;;51.28;34.38;;;;;;;7.12;100.00;102278.16;5095887;28;20023;-71
2022/01/29 08:37:21;;;;;;;52.47;34.47;;;;;;;7.15;100.00;102291.44;5095516;28;20028;-72
2022/01/29 08:39:46;;;;;;;50.90;33.45;;;;;;;7.17;100.00;102281.88;5095539;28;20024;-71
2022/01/29 08:42:12;;;;;;;50.05;33.50;;;;;;;7.25;100.00;102279.56;5093532;28;20494;-72
2022/01/29 08:44:37;;;;;;;48.97;32.88;;;;;;;7.26;100.00;102281.34;5095206;28;20153;-70
2022/01/29 08:47:03;;;;;;;45.60;30.08;;;;;;;7.26;100.00;102279.63;5095433;28;20059;-74
2022/01/29 08:49:28;;;;;;;47.65;31.17;;;;;;;7.28;100.00;102277.03;5095609;28;20027;-73
2022/01/29 08:51:54;;;;;;;47.88;31.48;;;;;;;7.27;100.00;102277.91;5095320;28;20024;-74
2022/01/29 08:54:19;;;;;;;47.05;30.30;;;;;;;7.29;100.00;102268.31;5095347;28;20016;-73
2022/01/29 08:56:44;;;;;;;46.22;30.65;;;;;;;7.27;100.00;102263.00;5093977;28;20046;-72
2022/01/29 08:59:10;;;;;;;48.63;32.00;;;;;;;7.36;100.00;102273.00;5094964;28;20024;-73
2022/01/29 09:01:36;;;;;;;44.63;28.98;;;;;;;7.36;100.00;102272.13;5095163;28;20106;-75
2022/01/29 09:04:01;;;;;;;47.00;30.50;;;;;;;7.40;100.00;102279.31;5095031;28;20466;-74
2022/01/29 09:06:28;;;;;;;46.05;31.33;;;;;;;7.41;100.00;102268.84;5095041;28;20020;-67
2022/01/29 09:08:53;;;;;;;45.85;30.30;;;;;;;7.42;100.00;102267.09;5087541;28;20040;-68
2022/01/29 09:11:19;;;;;;;45.22;29.98;;;;;;;7.45;100.00;102256.69;5093235;28;20024;-68
2022/01/29 09:13:45;;;;;;;46.00;31.25;;;;;;;7.45;100.00;102251.41;5093368;28;20028;-68
2022/01/29 09:16:11;;;;;;;44.70;30.08;;;;;;;7.54;100.00;102257.03;5093024;28;20032;-69
2022/01/29 09:18:36;;;;;;;42.95;28.13;;;;;;;7.59;100.00;102259.88;5093493;28;20462;-68
2022/01/29 09:21:02;;;;;;;45.92;28.60;;;;;;;7.63;100.00;102262.69;5092854;28;20028;-67
2022/01/29 09:23:28;;;;;;;43.88;29.90;;;;;;;7.67;100.00;102255.78;5093410;28;20039;-68
2022/01/29 09:25:53;;;;;;;42.08;28.58;;;;;;;7.73;100.00;102247.22;5092740;28;20016;-67
2022/01/29 09:28:18;;;;;;;41.28;28.33;;;;;;;7.74;100.00;102244.66;5093119;28;20530;-66
2022/01/29 09:30:45;;;;;;;41.38;26.83;;;;;;;7.75;100.00;102246.47;5093261;28;20112;-66
2022/01/29 09:33:11;;;;;;;40.08;25.80;;;;;;;7.79;100.00;102247.44;5093004;28;20024;-69
2022/01/29 09:35:40;;;;;;;39.92;25.88;;;;;;;7.83;100.00;102254.63;5093186;28;20027;-68
2022/01/29 09:38:07;;;;;;;38.95;25.45;;;;;;;7.85;100.00;102259.13;5092239;28;20459;-67
2022/01/29 09:40:33;;;;;;;41.63;26.98;;;;;;;7.88;100.00;102258.34;5093197;28;20032;-67
2022/01/29 09:43:00;;;;;;;39.63;26.77;;;;;;;7.92;100.00;102239.22;5092543;28;20399;-68
2022/01/29 09:45:26;;;;;;;39.75;26.45;;;;;;;7.97;100.00;102263.97;5091159;28;20032;-68
2022/01/29 09:48:01;;;;;;;40.03;26.23;;;;;;;7.97;100.00;102253.44;5092196;28;20039;-67
2022/01/29 09:50:29;;;;;;;40.10;25.55;;;;;;;8.05;100.00;102252.81;5086954;28;20028;-74
2022/01/29 09:52:54;;;;;;;39.75;25.70;;;;;;;8.09;100.00;102239.81;5091736;28;20028;-75
2022/01/29 09:55:20;;;;;;;37.72;26.13;;;;;;;8.14;100.00;102248.78;5092424;28;20031;-74
2022/01/29 09:57:45;;;;;;;39.10;26.15;;;;;;;8.14;100.00;102261.03;5091793;28;20031;-75
2022/01/29 10:00:11;;;;;;;37.40;24.85;;;;;;;8.19;100.00;102267.41;5092690;28;20048;-78
2022/01/29 10:02:37;;;;;;;37.38;24.38;;;;;;;8.22;100.00;102251.69;5092734;28;20090;-76
2022/01/29 10:05:04;;;;;;;36.50;24.10;;;;;;;8.29;100.00;102245.81;5092403;28;20491;-75
2022/01/29 10:07:31;;;;;;;36.58;24.48;;;;;;;8.32;100.00;102252.94;5092089;28;20032;-75
2022/01/29 10:09:58;;;;;;;36.97;25.05;;;;;;;8.36;100.00;102254.84;5091876;28;20364;-76
2022/01/29 10:12:27;;;;;;;35.88;25.58;;;;;;;8.41;100.00;102247.97;5092185;28;20118;-74
2022/01/29 10:14:55;;;;;;;36.47;23.88;;;;;;;8.46;100.00;102264.00;5092111;28;20063;-76
2022/01/29 10:17:45;;;;;;;36.75;24.13;;;;;;;8.50;100.00;102243.09;5090653;28;20097;-73
2022/01/29 10:20:14;;;;;;;35.38;24.10;;;;;;;8.49;100.00;102245.66;5091582;28;20028;-76
2022/01/29 10:22:40;;;;;;;36.03;23.77;;;;;;;8.53;100.00;102251.09;5091705;28;20024;-76
2022/01/29 10:25:09;;;;;;;34.63;23.23;;;;;;;8.56;100.00;102247.66;5092203;28;20035;-75
2022/01/29 10:27:35;;;;;;;35.03;24.02;;;;;;;8.60;100.00;102231.09;5091830;28;20024;-75
2022/01/29 10:30:01;;;;;;;34.83;23.48;;;;;;;8.62;100.00;102232.06;5092045;28;20501;-75
2022/01/29 10:32:26;;;;;;;34.78;22.67;;;;;;;8.76;100.00;102221.09;5092184;28;20489;-76
2022/01/29 10:34:56;;;;;;;34.40;22.80;;;;;;;8.80;100.00;102215.09;5091591;28;20020;-76
2022/01/29 10:37:26;;;;;;;32.40;21.67;;;;;;;8.83;100.00;102212.56;5092033;28;20035;-72
2022/01/29 10:39:56;;;;;;;32.70;20.88;;;;;;;8.85;100.00;102213.47;5091917;28;20082;-70
2022/01/29 10:42:23;;;;;;;31.42;20.70;;;;;;;8.87;100.00;102211.81;5092184;28;20028;-73
2022/01/29 10:44:51;;;;;;;32.03;21.35;;;;;;;8.86;100.00;102210.00;5091302;28;20077;-72
2022/01/29 10:47:17;;;;;;;31.88;20.02;;;;;;;8.86;100.00;102207.38;5090518;28;20024;-72
2022/01/29 10:49:58;;;;;;;31.85;21.25;;;;;;;8.97;100.00;102199.81;5091885;28;20489;-72
2022/01/29 10:52:34;;;;;;;31.75;20.30;;;;;;;9.01;100.00;102192.06;5091932;28;20035;-70
2022/01/29 10:55:03;;;;;;;32.00;20.30;;;;;;;8.98;100.00;102194.56;5088678;28;20482;-72
2022/01/29 10:57:43;;;;;;;29.65;18.30;;;;;;;9.06;100.00;102198.38;5090836;28;20020;-73
2022/01/29 11:00:15;;;;;;;29.45;18.15;;;;;;;9.06;100.00;102205.41;5091807;28;20459;-75
2022/01/29 11:02:41;;;;;;;28.92;17.20;;;;;;;9.06;100.00;102195.72;5091991;28;20028;-73
2022/01/29 11:05:06;;;;;;;28.30;17.67;;;;;;;9.08;100.00;102188.75;5091356;28;20043;-71
2022/01/29 11:07:34;;;;;;;28.70;17.88;;;;;;;9.08;100.00;102187.84;5090994;28;20035;-72
2022/01/29 11:10:02;;;;;;;28.98;17.85;;;;;;;9.15;100.00;102183.69;5087425;28;20036;-74
2022/01/29 11:12:30;;;;;;;28.25;16.92;;;;;;;9.24;100.00;102166.38;5091078;28;20039;-69
2022/01/29 11:15:05;;;;;;;27.13;15.57;;;;;;;9.22;100.00;102164.56;5091226;28;20489;-71
2022/01/29 11:17:31;;;;;;;25.77;15.43;;;;;;;9.21;100.00;102168.03;5090938;28;20032;-69